Renfrew, Canada
Current Conditions -  °F | °C
As of 12:00 PM on Thursday 18 Dec 2014 (Local Time) from CYWA Reporting Station
Overcast Overcast  
Wind Chill: 16°   Ceiling: 1400
Heat Index: 25°   Visibility: 9mi
Dew Point: 19°   Wind: 8mph
Humidity: 80%   Direction: 310°NW
Pressure: 30.03"   Gusts: NA
Location:  45.47°N, 76.68°W
Report Text: CYWA 181700Z AUTO 31007KT 9SM OVC014 M04/M07 A3003 RMK SLP178
Loading
Personal Weather Stations






























Interactive Weather Map New forecast layout! Learn more

10-Day Weather Forecast

Advertisements
Track Severe Weather on mobile